createdAt,value
2019-05-11T00:00:32.823Z,7.70
2019-05-11T00:03:00.485Z,8.73
2019-05-11T00:05:28.212Z,8.30
2019-05-11T00:07:55.877Z,8.50
2019-05-11T00:10:23.774Z,8.97
2019-05-11T00:12:51.585Z,8.27
2019-05-11T00:15:19.249Z,8.03
2019-05-11T00:17:46.953Z,7.53
2019-05-11T00:20:14.622Z,9.67
2019-05-11T00:22:42.294Z,7.83
2019-05-11T00:25:09.952Z,6.37
2019-05-11T00:27:37.629Z,8.77
2019-05-11T00:30:05.318Z,7.53
2019-05-11T00:32:33.053Z,8.27
2019-05-11T00:35:00.736Z,7.53
2019-05-11T00:37:28.414Z,9.67
2019-05-11T00:39:56.063Z,7.40
2019-05-11T00:42:23.735Z,7.13
2019-05-11T00:44:51.433Z,6.57
2019-05-11T00:47:19.202Z,6.17
2019-05-11T00:49:46.900Z,5.73
2019-05-11T00:52:14.579Z,6.80
2019-05-11T00:54:42.253Z,6.20
2019-05-11T00:57:09.937Z,5.80
2019-05-11T00:59:37.611Z,6.70
2019-05-11T01:02:05.275Z,5.57
2019-05-11T01:04:32.998Z,6.33
2019-05-11T01:07:00.779Z,5.10
2019-05-11T01:09:28.511Z,6.43
2019-05-11T01:11:56.151Z,8.03
2019-05-11T01:14:23.860Z,6.20
2019-05-11T01:16:51.523Z,5.87
2019-05-11T01:19:19.221Z,7.30
2019-05-11T01:21:46.897Z,6.83
2019-05-11T01:24:14.655Z,5.63
2019-05-11T01:26:42.424Z,5.27
2019-05-11T01:29:10.151Z,5.37
2019-05-11T01:31:37.813Z,5.33
2019-05-11T01:34:05.483Z,6.27
2019-05-11T01:36:33.153Z,5.30
2019-05-11T01:39:00.869Z,7.53
2019-05-11T01:41:28.541Z,7.17
2019-05-11T01:43:56.268Z,9.00
2019-05-11T01:46:23.990Z,7.83
2019-05-11T01:48:51.664Z,7.90
2019-05-11T01:51:19.354Z,8.70
2019-05-11T01:53:48.164Z,8.10
2019-05-11T01:56:16.041Z,7.93
2019-05-11T01:58:43.717Z,7.17
2019-05-11T02:01:11.382Z,6.77
2019-05-11T02:03:39.048Z,6.93
2019-05-11T02:06:06.715Z,7.40
2019-05-11T02:08:34.413Z,9.13
2019-05-11T02:11:15.630Z,7.00
2019-05-11T02:13:31.549Z,6.67
2019-05-11T02:15:59.212Z,7.77
2019-05-11T02:18:26.874Z,7.80
2019-05-11T02:20:54.564Z,7.63
2019-05-11T02:23:22.211Z,7.03
2019-05-11T02:25:49.952Z,7.10
2019-05-11T02:28:17.857Z,6.40
2019-05-11T02:30:45.604Z,5.93
2019-05-11T02:33:13.475Z,7.43
2019-05-11T02:35:41.140Z,6.43
2019-05-11T02:38:08.812Z,5.50
2019-05-11T02:40:36.472Z,6.00
2019-05-11T02:43:04.149Z,6.63
2019-05-11T02:45:31.814Z,6.63
2019-05-11T02:47:59.480Z,8.27
2019-05-11T02:50:27.333Z,6.47
2019-05-11T02:52:55.145Z,7.10
2019-05-11T02:55:22.835Z,6.17
2019-05-11T02:57:50.601Z,6.27
2019-05-11T03:00:18.271Z,6.40
2019-05-11T03:02:45.921Z,6.17
2019-05-11T03:05:13.599Z,6.30
2019-05-11T03:07:41.281Z,6.30
2019-05-11T03:10:08.936Z,7.60
2019-05-11T03:12:36.612Z,6.93
2019-05-11T03:15:04.314Z,5.63
2019-05-11T03:17:33.930Z,7.27
2019-05-11T03:20:01.602Z,9.90
2019-05-11T03:22:29.263Z,7.33
2019-05-11T03:24:56.924Z,7.30
2019-05-11T03:27:24.595Z,6.53
2019-05-11T03:29:52.267Z,6.80
2019-05-11T03:32:19.966Z,6.93
2019-05-11T03:34:47.701Z,7.27
2019-05-11T03:37:15.563Z,8.83
2019-05-11T03:39:43.317Z,5.97
2019-05-11T03:42:14.735Z,6.57
2019-05-11T03:44:40.398Z,5.97
2019-05-11T03:47:08.054Z,8.97
2019-05-11T03:49:35.741Z,6.87
2019-05-11T03:52:03.415Z,7.27
2019-05-11T03:54:31.076Z,6.63
2019-05-11T03:56:58.759Z,6.00
2019-05-11T03:59:26.571Z,6.23
2019-05-11T04:01:54.570Z,7.23
2019-05-11T04:04:22.290Z,7.07
2019-05-11T04:06:50.061Z,6.00
2019-05-11T04:09:17.723Z,6.40
2019-05-11T04:11:45.409Z,8.17
2019-05-11T04:14:13.121Z,5.80
2019-05-11T04:16:40.857Z,5.40
2019-05-11T04:19:08.587Z,6.10
2019-05-11T04:21:36.305Z,6.20
2019-05-11T04:24:03.993Z,6.20
2019-05-11T04:26:31.751Z,7.50
2019-05-11T04:28:59.509Z,5.70
2019-05-11T04:31:27.199Z,6.80
2019-05-11T04:33:54.852Z,6.57
2019-05-11T04:36:22.532Z,6.07
2019-05-11T04:38:50.266Z,7.07
2019-05-11T04:41:17.993Z,7.70
2019-05-11T04:43:45.698Z,6.93
2019-05-11T04:46:13.374Z,9.57
2019-05-11T04:48:41.069Z,6.90
2019-05-11T04:51:08.757Z,5.87
2019-05-11T04:53:36.597Z,6.57
2019-05-11T04:56:04.336Z,6.43
2019-05-11T04:58:32.001Z,5.10
2019-05-11T05:00:59.699Z,9.30
2019-05-11T05:03:40.431Z,5.43
2019-05-11T05:05:56.840Z,5.43
2019-05-11T05:08:26.613Z,4.90
2019-05-11T05:10:58.659Z,5.00
2019-05-11T05:13:28.727Z,6.63
2019-05-11T05:15:52.761Z,5.53
2019-05-11T05:18:20.433Z,6.03
2019-05-11T05:20:48.092Z,8.70
2019-05-11T05:23:15.847Z,6.43
2019-05-11T05:25:43.538Z,6.50
2019-05-11T05:28:11.203Z,11.50
2019-05-11T05:30:38.864Z,7.30
2019-05-11T05:33:06.555Z,6.00
2019-05-11T05:35:34.239Z,6.60
2019-05-11T05:38:01.918Z,6.53
2019-05-11T05:40:29.591Z,7.37
2019-05-11T05:42:57.276Z,4.97
2019-05-11T05:45:25.055Z,4.73
2019-05-11T05:47:52.755Z,7.00
2019-05-11T05:50:20.436Z,5.63
2019-05-11T05:52:48.112Z,7.70
2019-05-11T05:55:15.792Z,6.10
2019-05-11T05:57:43.650Z,6.77
2019-05-11T06:00:11.384Z,6.03
2019-05-11T06:02:39.066Z,8.03
2019-05-11T06:05:06.738Z,5.77
2019-05-11T06:07:34.405Z,5.47
2019-05-11T06:10:02.073Z,5.80
2019-05-11T06:12:29.777Z,7.43
2019-05-11T06:14:57.457Z,6.43
2019-05-11T06:17:25.121Z,7.33
2019-05-11T06:19:52.776Z,6.47
2019-05-11T06:22:20.560Z,7.07
2019-05-11T06:24:48.246Z,6.50
2019-05-11T06:27:15.912Z,6.87
2019-05-11T06:29:43.672Z,5.33
2019-05-11T06:32:11.365Z,5.60
2019-05-11T06:34:39.107Z,7.30
2019-05-11T06:37:06.805Z,5.53
2019-05-11T06:39:34.555Z,8.63
2019-05-11T06:42:02.228Z,4.97
2019-05-11T06:44:29.907Z,7.13
2019-05-11T06:46:57.750Z,7.67
2019-05-11T06:49:25.633Z,6.00
2019-05-11T06:51:55.399Z,5.37
2019-05-11T06:54:23.278Z,6.47
2019-05-11T06:56:51.089Z,5.63
2019-05-11T06:59:18.995Z,6.07
2019-05-11T07:01:46.756Z,7.87
2019-05-11T07:04:14.419Z,5.50
2019-05-11T07:06:42.095Z,6.93
2019-05-11T07:09:09.747Z,6.13
2019-05-11T07:11:37.500Z,11.13
2019-05-11T07:14:19.258Z,9.90
2019-05-11T07:16:34.688Z,5.40
2019-05-11T07:19:02.347Z,7.40
2019-05-11T07:21:30.004Z,3.97
2019-05-11T07:23:57.697Z,5.77
2019-05-11T07:26:25.438Z,3.67
2019-05-11T07:28:53.158Z,6.20
2019-05-11T07:31:20.821Z,3.83
2019-05-11T07:33:48.738Z,3.90
2019-05-11T07:36:17.737Z,6.50
2019-05-11T07:38:45.588Z,5.03
2019-05-11T07:41:13.254Z,3.27
2019-05-11T07:43:40.919Z,3.53
2019-05-11T07:46:08.600Z,5.40
2019-05-11T07:48:38.582Z,3.00
2019-05-11T07:51:05.635Z,3.23
2019-05-11T07:53:33.325Z,3.77
2019-05-11T07:56:00.995Z,3.20
2019-05-11T07:58:28.704Z,3.90
2019-05-11T08:00:58.177Z,5.53
2019-05-11T08:03:28.180Z,3.57
2019-05-11T08:05:55.134Z,3.63
2019-05-11T08:08:25.053Z,3.80
2019-05-11T08:10:52.161Z,4.03
2019-05-11T08:13:19.819Z,4.83
2019-05-11T08:15:48.888Z,6.13
2019-05-11T08:18:18.745Z,4.10
2019-05-11T08:20:47.855Z,26.60
2019-05-11T08:23:17.884Z,31.27
2019-05-11T08:25:45.079Z,14.33
2019-05-11T08:28:12.768Z,11.37
2019-05-11T08:30:40.464Z,12.33
2019-05-11T08:33:08.677Z,9.63
2019-05-11T08:35:38.785Z,7.57
2019-05-11T08:38:06.013Z,5.97
2019-05-11T08:40:33.696Z,6.07
2019-05-11T08:43:01.356Z,6.30
2019-05-11T08:45:29.024Z,7.47
2019-05-11T08:47:57.981Z,8.90
2019-05-11T08:50:27.960Z,6.87
2019-05-11T08:52:55.302Z,6.03
2019-05-11T08:55:23.071Z,5.50
2019-05-11T08:57:50.720Z,7.00
2019-05-11T09:00:18.383Z,5.03
2019-05-11T09:02:47.663Z,6.53
2019-05-11T09:05:15.441Z,5.30
2019-05-11T09:07:43.140Z,4.90
2019-05-11T09:10:10.854Z,5.13
2019-05-11T09:12:38.512Z,5.63
2019-05-11T09:15:08.554Z,5.80
2019-05-11T09:17:37.970Z,5.57
2019-05-11T09:20:05.055Z,6.33
2019-05-11T09:22:32.714Z,5.43
2019-05-11T09:25:00.400Z,6.20
2019-05-11T09:27:28.609Z,7.33
2019-05-11T09:29:58.828Z,6.80
2019-05-11T09:32:28.334Z,6.70
2019-05-11T09:34:57.791Z,7.87
2019-05-11T09:37:24.628Z,6.70
2019-05-11T09:39:52.290Z,4.90
2019-05-11T09:42:19.947Z,5.73
2019-05-11T09:44:48.520Z,5.90
2019-05-11T09:47:18.783Z,7.57
2019-05-11T09:49:48.623Z,5.80
2019-05-11T09:52:15.126Z,6.07
2019-05-11T09:54:42.784Z,5.10
2019-05-11T09:57:10.455Z,6.27
2019-05-11T09:59:38.634Z,6.93
2019-05-11T10:02:07.984Z,6.17
2019-05-11T10:04:37.943Z,9.40
2019-05-11T10:07:05.365Z,5.50
2019-05-11T10:09:33.087Z,6.20
2019-05-11T10:12:00.748Z,5.20
2019-05-11T10:14:28.972Z,7.37
2019-05-11T10:16:58.453Z,4.83
2019-05-11T10:19:28.248Z,6.03
2019-05-11T10:21:57.846Z,6.87
2019-05-11T10:24:24.892Z,7.00
2019-05-11T10:26:52.563Z,5.50
2019-05-11T10:29:20.230Z,7.33
2019-05-11T10:31:48.166Z,5.37
2019-05-11T10:34:17.939Z,5.70
2019-05-11T10:36:45.547Z,5.40
2019-05-11T10:39:13.197Z,7.73
2019-05-11T10:41:40.873Z,5.13
2019-05-11T10:44:08.563Z,5.40
2019-05-11T10:46:38.019Z,6.07
2019-05-11T10:49:07.824Z,5.27
2019-05-11T10:51:35.229Z,5.40
2019-05-11T10:54:02.885Z,5.77
2019-05-11T10:56:30.636Z,4.87
2019-05-11T10:58:58.715Z,7.40
2019-05-11T11:01:28.412Z,6.47
2019-05-11T11:03:55.847Z,5.93
2019-05-11T11:06:23.517Z,4.57
2019-05-11T11:08:51.190Z,5.20
2019-05-11T11:11:18.855Z,5.63
2019-05-11T11:13:47.978Z,5.37
2019-05-11T11:16:32.720Z,5.10
2019-05-11T11:18:45.347Z,5.70
2019-05-11T11:21:13.270Z,7.77
2019-05-11T11:23:40.936Z,4.40
2019-05-11T11:26:08.628Z,4.33
2019-05-11T11:28:38.227Z,6.97
2019-05-11T11:31:07.826Z,5.43
2019-05-11T11:33:35.188Z,6.97
2019-05-11T11:36:02.858Z,4.60
2019-05-11T11:38:30.512Z,5.10
2019-05-11T11:40:58.697Z,6.00
2019-05-11T11:43:28.674Z,4.20
2019-05-11T11:45:57.990Z,4.80
2019-05-11T11:48:25.356Z,5.10
2019-05-11T11:50:53.011Z,5.80
2019-05-11T11:53:20.677Z,5.13
2019-05-11T11:55:49.211Z,4.27
2019-05-11T11:58:23.254Z,4.53
2019-05-11T12:00:48.232Z,4.90
2019-05-11T12:03:15.703Z,4.83
2019-05-11T12:05:43.375Z,4.10
2019-05-11T12:08:11.036Z,3.70
2019-05-11T12:10:38.703Z,4.13
2019-05-11T12:13:08.447Z,3.90
2019-05-11T12:15:35.827Z,5.97
2019-05-11T12:18:03.507Z,4.93
2019-05-11T12:20:31.165Z,7.07
2019-05-11T12:22:58.821Z,5.03
2019-05-11T12:25:27.726Z,5.80
2019-05-11T12:27:57.762Z,5.23
2019-05-11T12:30:25.196Z,5.03
2019-05-11T12:32:53.307Z,4.40
2019-05-11T12:35:20.973Z,5.47
2019-05-11T12:37:48.703Z,5.67
2019-05-11T12:40:18.013Z,6.63
2019-05-11T12:42:48.624Z,5.37
2019-05-11T12:45:15.307Z,7.17
2019-05-11T12:47:42.967Z,5.87
2019-05-11T12:50:10.634Z,6.50
2019-05-11T12:52:38.448Z,7.80
2019-05-11T12:55:06.124Z,7.40
2019-05-11T12:57:34.487Z,7.40
2019-05-11T13:00:02.161Z,6.87
2019-05-11T13:02:29.826Z,7.03
2019-05-11T13:04:58.471Z,7.47
2019-05-11T13:07:28.295Z,13.43
2019-05-11T13:09:57.871Z,8.13
2019-05-11T13:12:25.076Z,8.07
2019-05-11T13:14:52.735Z,9.33
2019-05-11T13:17:34.232Z,7.93
2019-05-11T13:19:49.766Z,9.37
2019-05-11T13:22:18.346Z,7.97
2019-05-11T13:24:48.135Z,10.20
2019-05-11T13:27:17.334Z,9.60
2019-05-11T13:29:45.405Z,9.37
2019-05-11T13:32:13.052Z,15.70
2019-05-11T13:34:40.715Z,8.67
2019-05-11T13:37:08.383Z,12.37
2019-05-11T13:39:37.831Z,11.23
2019-05-11T13:42:05.425Z,11.40
2019-05-11T13:44:33.096Z,11.97
2019-05-11T13:47:00.765Z,11.27
2019-05-11T13:49:28.492Z,8.63
2019-05-11T13:51:58.370Z,11.47
2019-05-11T13:54:25.786Z,10.47
2019-05-11T13:56:53.447Z,10.80
2019-05-11T13:59:21.106Z,10.53
2019-05-11T14:01:48.777Z,13.70
2019-05-11T14:04:18.114Z,10.63
2019-05-11T14:06:47.968Z,12.80
2019-05-11T14:09:15.211Z,15.67
2019-05-11T14:11:44.975Z,13.57
2019-05-11T14:14:12.316Z,15.07
2019-05-11T14:16:39.992Z,14.50
2019-05-11T14:19:08.649Z,14.13
2019-05-11T14:21:38.522Z,12.47
2019-05-11T14:24:07.791Z,13.03
2019-05-11T14:26:35.380Z,11.57
2019-05-11T14:29:03.067Z,11.33
2019-05-11T14:31:30.824Z,10.40
2019-05-11T14:33:58.580Z,11.30
2019-05-11T14:36:28.231Z,14.27
2019-05-11T14:38:57.687Z,13.33
2019-05-11T14:41:25.036Z,10.83
2019-05-11T14:43:52.699Z,12.10
2019-05-11T14:46:20.396Z,12.07
2019-05-11T14:48:48.290Z,11.93
2019-05-11T14:51:17.966Z,12.07
2019-05-11T14:53:47.910Z,12.80
2019-05-11T14:56:14.888Z,10.80
2019-05-11T14:58:42.624Z,11.63
2019-05-11T15:01:10.289Z,12.03
2019-05-11T15:03:38.129Z,12.00
2019-05-11T15:06:08.093Z,11.80
2019-05-11T15:08:35.385Z,12.43
2019-05-11T15:11:03.068Z,12.53
2019-05-11T15:13:30.732Z,13.63
2019-05-11T15:15:58.744Z,11.37
2019-05-11T15:18:36.073Z,10.90
2019-05-11T15:20:57.991Z,10.97
2019-05-11T15:23:25.302Z,13.27
2019-05-11T15:25:53.124Z,13.97
2019-05-11T15:28:20.804Z,11.07
2019-05-11T15:30:48.504Z,15.20
2019-05-11T15:33:18.136Z,11.87
2019-05-11T15:35:47.788Z,13.33
2019-05-11T15:38:14.993Z,13.07
2019-05-11T15:40:42.680Z,12.50
2019-05-11T15:43:10.365Z,11.00
2019-05-11T15:45:38.215Z,10.50
2019-05-11T15:48:08.223Z,11.77
2019-05-11T15:50:39.777Z,13.07
2019-05-11T15:53:04.872Z,13.73
2019-05-11T15:55:32.552Z,16.13
2019-05-11T15:58:00.215Z,14.60
2019-05-11T16:00:27.905Z,13.40
2019-05-11T16:02:57.686Z,13.53
2019-05-11T16:05:24.935Z,7.63
2019-05-11T16:07:52.619Z,10.93
2019-05-11T16:10:20.325Z,12.73
2019-05-11T16:12:48.714Z,10.00
2019-05-11T16:15:18.880Z,12.57
2019-05-11T16:17:48.417Z,11.37
2019-05-11T16:20:17.509Z,12.97
2019-05-11T16:22:44.881Z,10.63
2019-05-11T16:25:12.539Z,10.40
2019-05-11T16:27:40.203Z,13.20
2019-05-11T16:30:07.868Z,10.83
2019-05-11T16:32:35.587Z,13.97
2019-05-11T16:35:03.336Z,11.67
2019-05-11T16:37:31.053Z,11.13
2019-05-11T16:39:58.721Z,10.13
2019-05-11T16:42:27.675Z,11.57
2019-05-11T16:44:57.706Z,9.50
2019-05-11T16:47:25.164Z,9.83
2019-05-11T16:49:52.828Z,9.23
2019-05-11T16:52:20.498Z,10.70
2019-05-11T16:54:48.164Z,10.67
2019-05-11T16:57:17.659Z,9.77
2019-05-11T16:59:45.232Z,10.83
2019-05-11T17:02:12.895Z,12.50
2019-05-11T17:04:40.595Z,9.90
2019-05-11T17:07:08.268Z,9.67
2019-05-11T17:09:37.795Z,13.83
2019-05-11T17:12:05.314Z,10.53
2019-05-11T17:14:32.981Z,9.43
2019-05-11T17:17:00.641Z,9.40
2019-05-11T17:19:42.249Z,11.10
2019-05-11T17:21:57.675Z,11.80
2019-05-11T17:24:25.363Z,10.03
2019-05-11T17:26:53.031Z,12.93
2019-05-11T17:29:20.697Z,9.83
2019-05-11T17:31:48.527Z,9.83
2019-05-11T17:34:20.518Z,10.10
2019-05-11T17:36:45.680Z,11.00
2019-05-11T17:39:13.349Z,10.57
2019-05-11T17:41:41.007Z,8.37
2019-05-11T17:44:08.765Z,10.73
2019-05-11T17:46:38.450Z,8.80
2019-05-11T17:49:07.854Z,7.97
2019-05-11T17:51:37.729Z,8.80
2019-05-11T17:54:07.627Z,10.70
2019-05-11T17:56:34.610Z,10.77
2019-05-11T17:59:02.268Z,7.90
2019-05-11T18:01:29.931Z,7.53
2019-05-11T18:03:58.316Z,8.07
2019-05-11T18:06:26.149Z,10.10
2019-05-11T18:08:53.812Z,8.03
2019-05-11T18:11:21.474Z,10.63
2019-05-11T18:13:49.141Z,9.53
2019-05-11T18:16:18.723Z,8.57
2019-05-11T18:18:48.228Z,10.57
2019-05-11T18:21:15.551Z,10.90
2019-05-11T18:23:43.224Z,12.10
2019-05-11T18:26:10.880Z,11.13
2019-05-11T18:28:38.592Z,11.70
2019-05-11T18:31:06.297Z,13.27
2019-05-11T18:33:34.000Z,13.93
2019-05-11T18:36:01.658Z,10.57
2019-05-11T18:38:29.321Z,9.70
2019-05-11T18:40:58.034Z,10.50
2019-05-11T18:43:28.075Z,13.40
2019-05-11T18:45:57.512Z,10.50
2019-05-11T18:48:24.797Z,12.33
2019-05-11T18:50:52.460Z,11.63
2019-05-11T18:53:20.151Z,12.23
2019-05-11T18:55:48.629Z,11.43
2019-05-11T18:58:18.540Z,11.37
2019-05-11T19:00:45.914Z,10.93
2019-05-11T19:03:13.655Z,10.83
2019-05-11T19:05:41.568Z,10.97
2019-05-11T19:08:09.289Z,14.67
2019-05-11T19:10:38.386Z,12.83
2019-05-11T19:13:06.398Z,11.03
2019-05-11T19:15:34.054Z,8.73
2019-05-11T19:18:01.794Z,8.93
2019-05-11T19:20:43.386Z,11.17
2019-05-11T19:22:59.141Z,10.97
2019-05-11T19:25:26.964Z,12.13
2019-05-11T19:27:54.634Z,8.60
2019-05-11T19:30:22.317Z,8.57
2019-05-11T19:32:50.002Z,9.53
2019-05-11T19:35:20.894Z,9.00
2019-05-11T19:37:48.682Z,6.77
2019-05-11T19:40:16.682Z,6.73
2019-05-11T19:42:53.972Z,7.23
2019-05-11T19:45:22.006Z,6.47
2019-05-11T19:47:49.712Z,7.10
2019-05-11T19:50:17.466Z,6.73
2019-05-11T19:52:45.114Z,6.37
2019-05-11T19:55:12.779Z,6.97
2019-05-11T19:57:40.434Z,7.03
2019-05-11T20:00:08.191Z,7.93
2019-05-11T20:02:35.935Z,7.03
2019-05-11T20:05:03.789Z,8.63
2019-05-11T20:07:32.102Z,6.10
2019-05-11T20:09:59.968Z,8.20
2019-05-11T20:12:28.356Z,11.10
2019-05-11T20:14:58.512Z,7.73
2019-05-11T20:17:25.586Z,7.73
2019-05-11T20:19:53.255Z,7.90
2019-05-11T20:22:21.000Z,10.57
2019-05-11T20:24:48.656Z,6.67
2019-05-11T20:27:18.480Z,5.37
2019-05-11T20:29:47.664Z,5.53
2019-05-11T20:32:15.108Z,4.53
2019-05-11T20:34:42.768Z,5.10
2019-05-11T20:37:10.428Z,6.27
2019-05-11T20:39:38.148Z,6.67
2019-05-11T20:42:05.899Z,5.70
2019-05-11T20:44:33.568Z,7.40
2019-05-11T20:47:01.228Z,4.53
2019-05-11T20:49:28.886Z,4.53
2019-05-11T20:51:58.025Z,4.90
2019-05-11T20:54:27.965Z,5.50
2019-05-11T20:56:55.341Z,5.63
2019-05-11T20:59:22.996Z,5.23
2019-05-11T21:01:50.664Z,5.30
2019-05-11T21:04:18.748Z,6.13
2019-05-11T21:06:47.524Z,6.77
2019-05-11T21:09:15.352Z,5.87
2019-05-11T21:11:43.023Z,6.67
2019-05-11T21:14:10.696Z,8.10
2019-05-11T21:16:38.802Z,6.53
2019-05-11T21:19:08.225Z,5.77
2019-05-11T21:21:49.507Z,6.53
2019-05-11T21:24:05.460Z,7.50
2019-05-11T21:26:33.155Z,7.13
2019-05-11T21:29:00.807Z,8.53
2019-05-11T21:31:29.216Z,9.27
2019-05-11T21:33:57.005Z,7.47
2019-05-11T21:36:24.673Z,7.37
2019-05-11T21:38:52.391Z,7.70
2019-05-11T21:41:20.072Z,6.57
2019-05-11T21:43:48.325Z,7.50
2019-05-11T21:46:18.079Z,10.37
2019-05-11T21:48:47.666Z,8.00
2019-05-11T21:51:14.867Z,8.87
2019-05-11T21:53:42.532Z,8.83
2019-05-11T21:56:10.203Z,7.80
2019-05-11T21:58:37.950Z,7.07
2019-05-11T22:01:05.836Z,11.53
2019-05-11T22:03:33.488Z,7.73
2019-05-11T22:06:01.171Z,7.27
2019-05-11T22:08:28.828Z,8.30
2019-05-11T22:10:59.762Z,7.70
2019-05-11T22:13:25.852Z,8.93
2019-05-11T22:15:53.551Z,7.57
2019-05-11T22:18:30.842Z,10.17
2019-05-11T22:20:50.566Z,8.70
2019-05-11T22:23:18.212Z,8.70
2019-05-11T22:25:47.576Z,9.07
2019-05-11T22:28:17.510Z,10.03
2019-05-11T22:30:44.601Z,10.67
2019-05-11T22:33:12.262Z,9.10
2019-05-11T22:35:39.940Z,8.40
2019-05-11T22:38:08.411Z,8.37
2019-05-11T22:40:38.391Z,9.77
2019-05-11T22:43:05.718Z,8.03
2019-05-11T22:45:33.371Z,7.20
2019-05-11T22:48:01.039Z,7.93
2019-05-11T22:50:29.214Z,7.30
2019-05-11T22:52:56.948Z,6.83
2019-05-11T22:55:24.609Z,6.93
2019-05-11T22:57:52.260Z,5.90
2019-05-11T23:00:19.964Z,4.93
2019-05-11T23:02:48.465Z,4.87
2019-05-11T23:05:16.164Z,7.10
2019-05-11T23:07:43.824Z,5.70
2019-05-11T23:10:11.546Z,5.27
2019-05-11T23:12:39.219Z,6.93
2019-05-11T23:15:10.434Z,6.97
2019-05-11T23:17:38.652Z,6.27
2019-05-11T23:20:06.628Z,8.03
2019-05-11T23:22:50.640Z,7.07
2019-05-11T23:25:07.976Z,4.43
2019-05-11T23:27:35.442Z,7.83
2019-05-11T23:30:03.091Z,6.47
2019-05-11T23:32:30.744Z,9.60
2019-05-11T23:34:58.403Z,5.00
2019-05-11T23:37:27.836Z,7.63
2019-05-11T23:39:55.463Z,6.37
2019-05-11T23:42:23.212Z,6.90
2019-05-11T23:44:50.920Z,5.77
2019-05-11T23:47:20.280Z,6.07
2019-05-11T23:49:48.045Z,6.17
2019-05-11T23:52:17.938Z,4.43
2019-05-11T23:54:45.156Z,4.80
2019-05-11T23:57:18.603Z,6.43
2019-05-11T23:59:47.763Z,6.03
